Winnipegosis, Canada
Current Conditions -  °F | °C
As of 6:00 AM on Thursday 27 Nov 2014 (Local Time) from CYDN Reporting Station
Clear Clear  
Wind Chill: -28°   Ceiling: Unl
Heat Index: -11°   Visibility: 9mi
Dew Point: -15°   Wind: 8mph
Humidity: 84%   Direction: 270°W
Pressure: 30.35"   Gusts: NA
Location:  51.65°N, 99.92°W
Report Text: CYDN 271200Z AUTO 27007KT 9SM CLR M24/M26 A3035 RMK SLP319
Loading
Personal Weather Stations






























Interactive Weather Map New forecast layout! Learn more

10-Day Weather Forecast

Advertisements
Track Severe Weather on mobile